sensor_id;sensor_type;location;lat;lon;timestamp;P1;durP1;ratioP1;P2;durP2;ratioP2
30185;SDS011;31152;49.190;8.122;2023-12-28T00:00:38;16.35;;;6.40;;
30185;SDS011;31152;49.190;8.122;2023-12-28T00:03:08;13.55;;;6.18;;
30185;SDS011;31152;49.190;8.122;2023-12-28T00:05:35;12.15;;;5.75;;
30185;SDS011;31152;49.190;8.122;2023-12-28T00:08:04;11.77;;;5.93;;
30185;SDS011;31152;49.190;8.122;2023-12-28T00:10:31;13.32;;;5.30;;
30185;SDS011;31152;49.190;8.122;2023-12-28T00:12:58;11.60;;;5.90;;
30185;SDS011;31152;49.190;8.122;2023-12-28T00:15:24;9.20;;;5.15;;
30185;SDS011;31152;49.190;8.122;2023-12-28T00:17:51;16.08;;;5.22;;
30185;SDS011;31152;49.190;8.122;2023-12-28T00:20:21;12.57;;;4.85;;
30185;SDS011;31152;49.190;8.122;2023-12-28T00:22:47;10.45;;;4.85;;
30185;SDS011;31152;49.190;8.122;2023-12-28T00:25:14;15.55;;;5.70;;
30185;SDS011;31152;49.190;8.122;2023-12-28T00:27:43;11.90;;;4.75;;
30185;SDS011;31152;49.190;8.122;2023-12-28T00:30:13;8.80;;;5.05;;
30185;SDS011;31152;49.190;8.122;2023-12-28T00:32:40;10.07;;;4.40;;
30185;SDS011;31152;49.190;8.122;2023-12-28T00:35:10;8.57;;;4.18;;
30185;SDS011;31152;49.190;8.122;2023-12-28T00:37:39;8.00;;;4.10;;
30185;SDS011;31152;49.190;8.122;2023-12-28T00:40:07;10.23;;;4.75;;
30185;SDS011;31152;49.190;8.122;2023-12-28T00:42:34;6.93;;;4.00;;
30185;SDS011;31152;49.190;8.122;2023-12-28T00:45:03;10.30;;;4.53;;
30185;SDS011;31152;49.190;8.122;2023-12-28T00:47:30;8.60;;;4.35;;
30185;SDS011;31152;49.190;8.122;2023-12-28T00:49:57;9.55;;;4.38;;
30185;SDS011;31152;49.190;8.122;2023-12-28T00:52:29;8.38;;;4.32;;
30185;SDS011;31152;49.190;8.122;2023-12-28T00:54:58;8.90;;;4.30;;
30185;SDS011;31152;49.190;8.122;2023-12-28T00:57:25;8.50;;;4.43;;
30185;SDS011;31152;49.190;8.122;2023-12-28T00:59:52;10.02;;;4.60;;
30185;SDS011;31152;49.190;8.122;2023-12-28T01:02:18;8.02;;;4.20;;
30185;SDS011;31152;49.190;8.122;2023-12-28T01:04:47;10.13;;;4.60;;
30185;SDS011;31152;49.190;8.122;2023-12-28T01:07:14;10.20;;;4.97;;
30185;SDS011;31152;49.190;8.122;2023-12-28T01:09:41;8.68;;;4.65;;
30185;SDS011;31152;49.190;8.122;2023-12-28T01:12:08;7.93;;;3.90;;
30185;SDS011;31152;49.190;8.122;2023-12-28T01:14:34;7.35;;;4.10;;
30185;SDS011;31152;49.190;8.122;2023-12-28T01:17:01;10.85;;;4.45;;
30185;SDS011;31152;49.190;8.122;2023-12-28T01:19:33;9.23;;;4.10;;
30185;SDS011;31152;49.190;8.122;2023-12-28T01:21:59;8.45;;;4.28;;
30185;SDS011;31152;49.190;8.122;2023-12-28T01:24:26;8.27;;;4.18;;
30185;SDS011;31152;49.190;8.122;2023-12-28T01:26:53;8.48;;;3.83;;
30185;SDS011;31152;49.190;8.122;2023-12-28T01:29:20;6.43;;;3.85;;
30185;SDS011;31152;49.190;8.122;2023-12-28T01:31:47;8.70;;;3.95;;
30185;SDS011;31152;49.190;8.122;2023-12-28T01:34:13;9.50;;;4.40;;
30185;SDS011;31152;49.190;8.122;2023-12-28T01:36:40;8.02;;;4.13;;
30185;SDS011;31152;49.190;8.122;2023-12-28T01:39:10;7.65;;;3.70;;
30185;SDS011;31152;49.190;8.122;2023-12-28T01:41:37;5.82;;;3.42;;
30185;SDS011;31152;49.190;8.122;2023-12-28T01:44:04;8.18;;;3.67;;
30185;SDS011;31152;49.190;8.122;2023-12-28T01:46:31;9.80;;;4.10;;
30185;SDS011;31152;49.190;8.122;2023-12-28T01:48:59;6.65;;;3.30;;
30185;SDS011;31152;49.190;8.122;2023-12-28T01:51:27;8.13;;;4.47;;
30185;SDS011;31152;49.190;8.122;2023-12-28T01:53:54;9.52;;;3.20;;
30185;SDS011;31152;49.190;8.122;2023-12-28T01:56:21;7.85;;;3.47;;
30185;SDS011;31152;49.190;8.122;2023-12-28T01:58:49;7.90;;;3.40;;
30185;SDS011;31152;49.190;8.122;2023-12-28T02:01:18;7.75;;;3.65;;
30185;SDS011;31152;49.190;8.122;2023-12-28T02:03:46;7.15;;;3.40;;
30185;SDS011;31152;49.190;8.122;2023-12-28T02:06:15;6.72;;;3.63;;
30185;SDS011;31152;49.190;8.122;2023-12-28T02:08:43;8.15;;;3.55;;
30185;SDS011;31152;49.190;8.122;2023-12-28T02:11:10;7.75;;;3.40;;
30185;SDS011;31152;49.190;8.122;2023-12-28T02:13:37;6.65;;;3.58;;
30185;SDS011;31152;49.190;8.122;2023-12-28T02:16:06;5.88;;;3.25;;
30185;SDS011;31152;49.190;8.122;2023-12-28T02:18:43;6.50;;;3.30;;
30185;SDS011;31152;49.190;8.122;2023-12-28T02:21:16;7.07;;;3.53;;
30185;SDS011;31152;49.190;8.122;2023-12-28T02:23:47;9.25;;;3.28;;
30185;SDS011;31152;49.190;8.122;2023-12-28T02:26:18;7.55;;;3.20;;
30185;SDS011;31152;49.190;8.122;2023-12-28T02:28:45;6.63;;;3.72;;
30185;SDS011;31152;49.190;8.122;2023-12-28T02:31:14;7.72;;;3.55;;
30185;SDS011;31152;49.190;8.122;2023-12-28T02:33:48;7.00;;;3.20;;
30185;SDS011;31152;49.190;8.122;2023-12-28T02:36:23;5.20;;;2.78;;
30185;SDS011;31152;49.190;8.122;2023-12-28T02:38:51;9.07;;;3.15;;
30185;SDS011;31152;49.190;8.122;2023-12-28T02:41:18;7.40;;;2.65;;
30185;SDS011;31152;49.190;8.122;2023-12-28T02:43:46;5.13;;;2.83;;
30185;SDS011;31152;49.190;8.122;2023-12-28T02:46:17;5.35;;;2.75;;
30185;SDS011;31152;49.190;8.122;2023-12-28T02:48:43;7.93;;;2.55;;
30185;SDS011;31152;49.190;8.122;2023-12-28T02:51:10;5.57;;;2.90;;
30185;SDS011;31152;49.190;8.122;2023-12-28T02:53:42;6.20;;;2.58;;
30185;SDS011;31152;49.190;8.122;2023-12-28T02:56:12;5.30;;;2.60;;
30185;SDS011;31152;49.190;8.122;2023-12-28T02:58:38;5.80;;;2.35;;
30185;SDS011;31152;49.190;8.122;2023-12-28T03:01:05;5.22;;;2.45;;
30185;SDS011;31152;49.190;8.122;2023-12-28T03:03:32;3.65;;;2.50;;
30185;SDS011;31152;49.190;8.122;2023-12-28T03:05:59;4.80;;;2.80;;
30185;SDS011;31152;49.190;8.122;2023-12-28T03:08:26;5.55;;;2.70;;
30185;SDS011;31152;49.190;8.122;2023-12-28T03:10:53;6.07;;;3.28;;
30185;SDS011;31152;49.190;8.122;2023-12-28T03:13:22;6.57;;;2.80;;
30185;SDS011;31152;49.190;8.122;2023-12-28T03:15:48;7.18;;;2.53;;
30185;SDS011;31152;49.190;8.122;2023-12-28T03:18:15;5.50;;;2.75;;
30185;SDS011;31152;49.190;8.122;2023-12-28T03:20:42;4.72;;;2.38;;
30185;SDS011;31152;49.190;8.122;2023-12-28T03:23:11;5.30;;;2.40;;
30185;SDS011;31152;49.190;8.122;2023-12-28T03:25:37;7.07;;;3.08;;
30185;SDS011;31152;49.190;8.122;2023-12-28T03:28:04;6.65;;;3.10;;
30185;SDS011;31152;49.190;8.122;2023-12-28T03:30:31;6.38;;;2.88;;
30185;SDS011;31152;49.190;8.122;2023-12-28T03:32:58;5.15;;;2.55;;
30185;SDS011;31152;49.190;8.122;2023-12-28T03:35:25;7.07;;;2.70;;
30185;SDS011;31152;49.190;8.122;2023-12-28T03:37:51;5.82;;;2.70;;
30185;SDS011;31152;49.190;8.122;2023-12-28T03:40:21;4.85;;;2.88;;
30185;SDS011;31152;49.190;8.122;2023-12-28T03:42:48;6.85;;;3.00;;
30185;SDS011;31152;49.190;8.122;2023-12-28T03:45:15;5.00;;;2.50;;
30185;SDS011;31152;49.190;8.122;2023-12-28T03:47:44;6.07;;;2.60;;
30185;SDS011;31152;49.190;8.122;2023-12-28T03:50:11;5.35;;;2.80;;
30185;SDS011;31152;49.190;8.122;2023-12-28T03:52:40;7.03;;;2.55;;
30185;SDS011;31152;49.190;8.122;2023-12-28T03:55:07;5.05;;;2.70;;
30185;SDS011;31152;49.190;8.122;2023-12-28T03:57:33;6.35;;;2.53;;
30185;SDS011;31152;49.190;8.122;2023-12-28T04:00:00;6.07;;;2.38;;
30185;SDS011;31152;49.190;8.122;2023-12-28T04:02:29;3.70;;;2.13;;
30185;SDS011;31152;49.190;8.122;2023-12-28T04:04:58;3.95;;;2.30;;
30185;SDS011;31152;49.190;8.122;2023-12-28T04:07:25;4.65;;;2.30;;
30185;SDS011;31152;49.190;8.122;2023-12-28T04:09:51;4.95;;;2.25;;
30185;SDS011;31152;49.190;8.122;2023-12-28T04:12:22;4.70;;;2.00;;
30185;SDS011;31152;49.190;8.122;2023-12-28T04:14:49;6.25;;;2.00;;
30185;SDS011;31152;49.190;8.122;2023-12-28T04:17:16;4.80;;;1.73;;
30185;SDS011;31152;49.190;8.122;2023-12-28T04:19:43;3.60;;;1.80;;
30185;SDS011;31152;49.190;8.122;2023-12-28T04:22:09;3.42;;;1.50;;
30185;SDS011;31152;49.190;8.122;2023-12-28T04:24:36;4.03;;;1.50;;
30185;SDS011;31152;49.190;8.122;2023-12-28T04:27:03;5.53;;;1.90;;
30185;SDS011;31152;49.190;8.122;2023-12-28T04:29:30;4.70;;;1.88;;
30185;SDS011;31152;49.190;8.122;2023-12-28T04:32:01;5.25;;;2.30;;
30185;SDS011;31152;49.190;8.122;2023-12-28T04:34:30;4.15;;;1.95;;
30185;SDS011;31152;49.190;8.122;2023-12-28T04:36:59;6.55;;;2.15;;
30185;SDS011;31152;49.190;8.122;2023-12-28T04:39:25;3.63;;;1.80;;
30185;SDS011;31152;49.190;8.122;2023-12-28T04:41:52;3.08;;;1.60;;
30185;SDS011;31152;49.190;8.122;2023-12-28T04:44:20;6.30;;;1.73;;
30185;SDS011;31152;49.190;8.122;2023-12-28T04:46:49;6.35;;;1.90;;
30185;SDS011;31152;49.190;8.122;2023-12-28T04:49:16;3.50;;;1.58;;
30185;SDS011;31152;49.190;8.122;2023-12-28T04:51:43;3.17;;;1.70;;
30185;SDS011;31152;49.190;8.122;2023-12-28T04:54:10;5.07;;;1.83;;
30185;SDS011;31152;49.190;8.122;2023-12-28T04:56:37;2.70;;;1.67;;
30185;SDS011;31152;49.190;8.122;2023-12-28T04:59:04;4.38;;;1.83;;
30185;SDS011;31152;49.190;8.122;2023-12-28T05:01:33;7.78;;;1.90;;
30185;SDS011;31152;49.190;8.122;2023-12-28T05:04:06;3.95;;;2.00;;
30185;SDS011;31152;49.190;8.122;2023-12-28T05:06:33;3.28;;;1.60;;
30185;SDS011;31152;49.190;8.122;2023-12-28T05:08:59;4.88;;;1.65;;
30185;SDS011;31152;49.190;8.122;2023-12-28T05:11:27;2.25;;;1.30;;
30185;SDS011;31152;49.190;8.122;2023-12-28T05:13:54;7.53;;;1.70;;
30185;SDS011;31152;49.190;8.122;2023-12-28T05:16:23;4.03;;;1.60;;
30185;SDS011;31152;49.190;8.122;2023-12-28T05:18:50;4.35;;;1.80;;
30185;SDS011;31152;49.190;8.122;2023-12-28T05:21:16;3.05;;;1.48;;
30185;SDS011;31152;49.190;8.122;2023-12-28T05:23:43;5.82;;;1.83;;
30185;SDS011;31152;49.190;8.122;2023-12-28T05:26:10;3.00;;;1.27;;
30185;SDS011;31152;49.190;8.122;2023-12-28T05:28:37;1.80;;;1.27;;
30185;SDS011;31152;49.190;8.122;2023-12-28T05:31:03;4.70;;;1.73;;
30185;SDS011;31152;49.190;8.122;2023-12-28T05:33:34;5.85;;;1.55;;
30185;SDS011;31152;49.190;8.122;2023-12-28T05:36:00;5.55;;;1.50;;
30185;SDS011;31152;49.190;8.122;2023-12-28T05:38:27;3.50;;;1.35;;
30185;SDS011;31152;49.190;8.122;2023-12-28T05:40:56;2.58;;;1.45;;
30185;SDS011;31152;49.190;8.122;2023-12-28T05:43:25;5.93;;;1.60;;
30185;SDS011;31152;49.190;8.122;2023-12-28T05:45:52;3.38;;;1.48;;
30185;SDS011;31152;49.190;8.122;2023-12-28T05:48:19;1.70;;;1.42;;
30185;SDS011;31152;49.190;8.122;2023-12-28T05:50:46;4.28;;;1.63;;
30185;SDS011;31152;49.190;8.122;2023-12-28T05:53:15;6.13;;;1.52;;
30185;SDS011;31152;49.190;8.122;2023-12-28T05:55:42;4.93;;;1.75;;
30185;SDS011;31152;49.190;8.122;2023-12-28T05:58:11;5.05;;;1.60;;
30185;SDS011;31152;49.190;8.122;2023-12-28T06:00:38;8.43;;;2.03;;
30185;SDS011;31152;49.190;8.122;2023-12-28T06:03:05;3.03;;;1.40;;
30185;SDS011;31152;49.190;8.122;2023-12-28T06:05:34;7.65;;;1.92;;
30185;SDS011;31152;49.190;8.122;2023-12-28T06:08:01;5.53;;;1.83;;
30185;SDS011;31152;49.190;8.122;2023-12-28T06:10:28;4.82;;;1.80;;
30185;SDS011;31152;49.190;8.122;2023-12-28T06:12:55;4.45;;;1.70;;
30185;SDS011;31152;49.190;8.122;2023-12-28T06:15:23;4.10;;;1.80;;
30185;SDS011;31152;49.190;8.122;2023-12-28T06:17:50;6.75;;;1.88;;
30185;SDS011;31152;49.190;8.122;2023-12-28T06:20:20;4.85;;;2.00;;
30185;SDS011;31152;49.190;8.122;2023-12-28T06:22:49;2.97;;;1.70;;
30185;SDS011;31152;49.190;8.122;2023-12-28T06:25:16;4.82;;;2.17;;
30185;SDS011;31152;49.190;8.122;2023-12-28T06:27:43;6.03;;;1.80;;
30185;SDS011;31152;49.190;8.122;2023-12-28T06:30:10;4.82;;;1.60;;
30185;SDS011;31152;49.190;8.122;2023-12-28T06:32:40;4.05;;;1.70;;
30185;SDS011;31152;49.190;8.122;2023-12-28T06:35:07;5.43;;;2.15;;
30185;SDS011;31152;49.190;8.122;2023-12-28T06:37:34;3.85;;;1.60;;
30185;SDS011;31152;49.190;8.122;2023-12-28T06:40:04;6.65;;;1.90;;
30185;SDS011;31152;49.190;8.122;2023-12-28T06:42:31;4.13;;;1.70;;
30185;SDS011;31152;49.190;8.122;2023-12-28T06:44:58;3.90;;;1.70;;
30185;SDS011;31152;49.190;8.122;2023-12-28T06:47:25;5.20;;;1.80;;
30185;SDS011;31152;49.190;8.122;2023-12-28T06:49:56;2.72;;;1.65;;
30185;SDS011;31152;49.190;8.122;2023-12-28T06:52:23;3.60;;;1.85;;
30185;SDS011;31152;49.190;8.122;2023-12-28T06:54:52;3.33;;;1.75;;
30185;SDS011;31152;49.190;8.122;2023-12-28T06:57:19;3.63;;;1.77;;
30185;SDS011;31152;49.190;8.122;2023-12-28T06:59:46;5.80;;;2.13;;
30185;SDS011;31152;49.190;8.122;2023-12-28T07:02:13;7.78;;;2.20;;
30185;SDS011;31152;49.190;8.122;2023-12-28T07:04:39;5.68;;;1.95;;
30185;SDS011;31152;49.190;8.122;2023-12-28T07:07:06;8.20;;;2.50;;
30185;SDS011;31152;49.190;8.122;2023-12-28T07:09:36;5.70;;;2.33;;
30185;SDS011;31152;49.190;8.122;2023-12-28T07:12:03;5.45;;;1.88;;
30185;SDS011;31152;49.190;8.122;2023-12-28T07:14:30;6.03;;;2.40;;
30185;SDS011;31152;49.190;8.122;2023-12-28T07:16:57;6.78;;;2.35;;
30185;SDS011;31152;49.190;8.122;2023-12-28T07:19:24;5.28;;;2.40;;
30185;SDS011;31152;49.190;8.122;2023-12-28T07:21:53;6.82;;;2.30;;
30185;SDS011;31152;49.190;8.122;2023-12-28T07:24:21;5.28;;;2.38;;
30185;SDS011;31152;49.190;8.122;2023-12-28T07:26:47;5.03;;;1.92;;
30185;SDS011;31152;49.190;8.122;2023-12-28T07:29:14;4.88;;;1.80;;
30185;SDS011;31152;49.190;8.122;2023-12-28T07:31:41;5.07;;;1.83;;
30185;SDS011;31152;49.190;8.122;2023-12-28T07:34:07;2.50;;;1.60;;
30185;SDS011;31152;49.190;8.122;2023-12-28T07:36:35;4.20;;;2.03;;
30185;SDS011;31152;49.190;8.122;2023-12-28T07:39:02;5.85;;;1.70;;
30185;SDS011;31152;49.190;8.122;2023-12-28T07:41:29;4.90;;;2.10;;
30185;SDS011;31152;49.190;8.122;2023-12-28T07:43:58;6.53;;;2.28;;
30185;SDS011;31152;49.190;8.122;2023-12-28T07:46:25;4.35;;;1.80;;
30185;SDS011;31152;49.190;8.122;2023-12-28T07:48:51;4.53;;;2.00;;
30185;SDS011;31152;49.190;8.122;2023-12-28T07:51:19;5.78;;;2.00;;
30185;SDS011;31152;49.190;8.122;2023-12-28T07:53:50;4.22;;;2.00;;
30185;SDS011;31152;49.190;8.122;2023-12-28T07:56:18;4.72;;;1.98;;
30185;SDS011;31152;49.190;8.122;2023-12-28T07:58:47;5.82;;;1.77;;
30185;SDS011;31152;49.190;8.122;2023-12-28T08:01:19;2.95;;;1.70;;
30185;SDS011;31152;49.190;8.122;2023-12-28T08:03:48;3.15;;;1.73;;
30185;SDS011;31152;49.190;8.122;2023-12-28T08:06:15;4.68;;;1.80;;
30185;SDS011;31152;49.190;8.122;2023-12-28T08:08:44;3.78;;;1.77;;
30185;SDS011;31152;49.190;8.122;2023-12-28T08:11:11;3.60;;;1.55;;
30185;SDS011;31152;49.190;8.122;2023-12-28T08:13:38;4.22;;;1.83;;
30185;SDS011;31152;49.190;8.122;2023-12-28T08:16:07;5.57;;;1.90;;
30185;SDS011;31152;49.190;8.122;2023-12-28T08:18:34;3.42;;;1.50;;
30185;SDS011;31152;49.190;8.122;2023-12-28T08:21:03;3.33;;;1.83;;
30185;SDS011;31152;49.190;8.122;2023-12-28T08:23:30;4.78;;;1.55;;
30185;SDS011;31152;49.190;8.122;2023-12-28T08:25:57;3.40;;;1.52;;
30185;SDS011;31152;49.190;8.122;2023-12-28T08:28:23;2.20;;;1.70;;
30185;SDS011;31152;49.190;8.122;2023-12-28T08:30:50;2.47;;;1.40;;
30185;SDS011;31152;49.190;8.122;2023-12-28T08:33:19;2.50;;;1.50;;
30185;SDS011;31152;49.190;8.122;2023-12-28T08:35:49;3.53;;;1.40;;
30185;SDS011;31152;49.190;8.122;2023-12-28T08:38:16;2.50;;;1.52;;
30185;SDS011;31152;49.190;8.122;2023-12-28T08:40:43;2.88;;;1.70;;
30185;SDS011;31152;49.190;8.122;2023-12-28T08:43:12;4.63;;;2.22;;
30185;SDS011;31152;49.190;8.122;2023-12-28T08:45:39;3.67;;;1.50;;
30185;SDS011;31152;49.190;8.122;2023-12-28T08:48:06;1.95;;;1.50;;
30185;SDS011;31152;49.190;8.122;2023-12-28T08:50:33;4.97;;;1.55;;
30185;SDS011;31152;49.190;8.122;2023-12-28T08:53:00;4.07;;;1.60;;
30185;SDS011;31152;49.190;8.122;2023-12-28T08:55:26;3.20;;;1.48;;
30185;SDS011;31152;49.190;8.122;2023-12-28T08:57:53;4.00;;;2.00;;
30185;SDS011;31152;49.190;8.122;2023-12-28T09:00:25;4.22;;;1.48;;
30185;SDS011;31152;49.190;8.122;2023-12-28T09:02:55;4.45;;;1.45;;
30185;SDS011;31152;49.190;8.122;2023-12-28T09:05:24;4.28;;;1.70;;
30185;SDS011;31152;49.190;8.122;2023-12-28T09:07:51;4.40;;;1.23;;
30185;SDS011;31152;49.190;8.122;2023-12-28T09:10:17;3.22;;;1.70;;
30185;SDS011;31152;49.190;8.122;2023-12-28T09:12:47;4.30;;;1.70;;
30185;SDS011;31152;49.190;8.122;2023-12-28T09:15:16;3.15;;;1.60;;
30185;SDS011;31152;49.190;8.122;2023-12-28T09:17:43;5.65;;;1.85;;
30185;SDS011;31152;49.190;8.122;2023-12-28T09:20:10;7.97;;;1.92;;
30185;SDS011;31152;49.190;8.122;2023-12-28T09:22:39;4.18;;;1.92;;
30185;SDS011;31152;49.190;8.122;2023-12-28T09:25:11;4.60;;;1.80;;
30185;SDS011;31152;49.190;8.122;2023-12-28T09:27:40;3.53;;;1.85;;
30185;SDS011;31152;49.190;8.122;2023-12-28T09:30:14;4.40;;;1.60;;
30185;SDS011;31152;49.190;8.122;2023-12-28T09:32:43;2.13;;;1.60;;
30185;SDS011;31152;49.190;8.122;2023-12-28T09:35:12;4.13;;;1.63;;
30185;SDS011;31152;49.190;8.122;2023-12-28T09:37:41;2.80;;;1.77;;
30185;SDS011;31152;49.190;8.122;2023-12-28T09:40:08;3.80;;;1.70;;
30185;SDS011;31152;49.190;8.122;2023-12-28T09:42:45;2.70;;;1.63;;
30185;SDS011;31152;49.190;8.122;2023-12-28T09:45:19;4.03;;;1.77;;
30185;SDS011;31152;49.190;8.122;2023-12-28T09:47:52;4.35;;;1.55;;
30185;SDS011;31152;49.190;8.122;2023-12-28T09:50:19;4.05;;;1.73;;
30185;SDS011;31152;49.190;8.122;2023-12-28T09:52:46;4.78;;;1.70;;
30185;SDS011;31152;49.190;8.122;2023-12-28T09:55:13;6.28;;;2.00;;
30185;SDS011;31152;49.190;8.122;2023-12-28T09:57:42;4.25;;;1.90;;
30185;SDS011;31152;49.190;8.122;2023-12-28T10:00:10;4.43;;;1.67;;
30185;SDS011;31152;49.190;8.122;2023-12-28T10:02:43;5.18;;;2.00;;
30185;SDS011;31152;49.190;8.122;2023-12-28T10:05:14;5.43;;;1.70;;
30185;SDS011;31152;49.190;8.122;2023-12-28T10:07:44;3.22;;;1.60;;
30185;SDS011;31152;49.190;8.122;2023-12-28T10:10:16;4.40;;;1.80;;
30185;SDS011;31152;49.190;8.122;2023-12-28T10:12:44;3.55;;;1.75;;
30185;SDS011;31152;49.190;8.122;2023-12-28T10:15:14;3.40;;;1.60;;
30185;SDS011;31152;49.190;8.122;2023-12-28T10:17:41;2.97;;;1.63;;
30185;SDS011;31152;49.190;8.122;2023-12-28T10:20:08;5.90;;;1.60;;
30185;SDS011;31152;49.190;8.122;2023-12-28T10:22:36;3.15;;;1.75;;
30185;SDS011;31152;49.190;8.122;2023-12-28T10:25:05;2.50;;;1.50;;
30185;SDS011;31152;49.190;8.122;2023-12-28T10:27:36;4.60;;;1.90;;
30185;SDS011;31152;49.190;8.122;2023-12-28T10:30:08;4.07;;;1.77;;
30185;SDS011;31152;49.190;8.122;2023-12-28T10:32:42;4.15;;;1.80;;
30185;SDS011;31152;49.190;8.122;2023-12-28T10:35:09;5.35;;;1.90;;
30185;SDS011;31152;49.190;8.122;2023-12-28T10:37:36;3.55;;;2.05;;
30185;SDS011;31152;49.190;8.122;2023-12-28T10:40:14;2.90;;;2.00;;
30185;SDS011;31152;49.190;8.122;2023-12-28T10:42:55;3.28;;;1.98;;
30185;SDS011;31152;49.190;8.122;2023-12-28T10:45:32;5.00;;;2.33;;
30185;SDS011;31152;49.190;8.122;2023-12-28T10:48:10;4.40;;;2.05;;
30185;SDS011;31152;49.190;8.122;2023-12-28T10:50:42;3.97;;;2.08;;
30185;SDS011;31152;49.190;8.122;2023-12-28T10:58:48;3.97;;;2.00;;
30185;SDS011;31152;49.190;8.122;2023-12-28T11:01:21;3.10;;;1.75;;
30185;SDS011;31152;49.190;8.122;2023-12-28T11:03:57;6.20;;;2.15;;
30185;SDS011;31152;49.190;8.122;2023-12-28T11:06:30;5.55;;;2.20;;
30185;SDS011;31152;49.190;8.122;2023-12-28T11:08:58;5.93;;;2.20;;
30185;SDS011;31152;49.190;8.122;2023-12-28T11:11:27;7.82;;;2.42;;
30185;SDS011;31152;49.190;8.122;2023-12-28T11:13:54;5.57;;;2.28;;
30185;SDS011;31152;49.190;8.122;2023-12-28T11:16:22;5.88;;;2.50;;
30185;SDS011;31152;49.190;8.122;2023-12-28T11:18:50;3.38;;;2.08;;
30185;SDS011;31152;49.190;8.122;2023-12-28T11:21:20;6.38;;;2.05;;
30185;SDS011;31152;49.190;8.122;2023-12-28T11:23:48;6.10;;;3.33;;
30185;SDS011;31152;49.190;8.122;2023-12-28T11:26:16;5.53;;;2.38;;
30185;SDS011;31152;49.190;8.122;2023-12-28T11:28:44;6.88;;;2.35;;
30185;SDS011;31152;49.190;8.122;2023-12-28T11:31:14;5.07;;;2.22;;
30185;SDS011;31152;49.190;8.122;2023-12-28T11:33:46;8.00;;;2.90;;
30185;SDS011;31152;49.190;8.122;2023-12-28T11:36:21;4.90;;;2.45;;
30185;SDS011;31152;49.190;8.122;2023-12-28T11:38:55;6.47;;;2.72;;
30185;SDS011;31152;49.190;8.122;2023-12-28T11:41:27;6.45;;;2.60;;
30185;SDS011;31152;49.190;8.122;2023-12-28T11:43:56;8.07;;;2.63;;
30185;SDS011;31152;49.190;8.122;2023-12-28T11:46:23;3.70;;;2.22;;
30185;SDS011;31152;49.190;8.122;2023-12-28T11:48:50;10.98;;;2.97;;
30185;SDS011;31152;49.190;8.122;2023-12-28T11:51:17;5.40;;;2.78;;
30185;SDS011;31152;49.190;8.122;2023-12-28T11:53:44;6.22;;;2.25;;
30185;SDS011;31152;49.190;8.122;2023-12-28T11:56:14;3.47;;;2.22;;
30185;SDS011;31152;49.190;8.122;2023-12-28T11:58:43;4.68;;;2.70;;
30185;SDS011;31152;49.190;8.122;2023-12-28T12:01:14;7.20;;;3.03;;
30185;SDS011;31152;49.190;8.122;2023-12-28T12:03:41;6.97;;;2.90;;
30185;SDS011;31152;49.190;8.122;2023-12-28T12:06:08;7.22;;;2.63;;
30185;SDS011;31152;49.190;8.122;2023-12-28T12:08:35;4.85;;;2.92;;
30185;SDS011;31152;49.190;8.122;2023-12-28T12:11:04;7.53;;;3.38;;
30185;SDS011;31152;49.190;8.122;2023-12-28T12:13:34;5.57;;;2.30;;
30185;SDS011;31152;49.190;8.122;2023-12-28T12:16:02;4.18;;;2.00;;
30185;SDS011;31152;49.190;8.122;2023-12-28T12:18:33;6.40;;;2.42;;
30185;SDS011;31152;49.190;8.122;2023-12-28T12:21:01;4.13;;;2.20;;
30185;SDS011;31152;49.190;8.122;2023-12-28T12:23:28;5.45;;;2.20;;
30185;SDS011;31152;49.190;8.122;2023-12-28T12:25:56;5.80;;;2.38;;
30185;SDS011;31152;49.190;8.122;2023-12-28T12:28:22;2.47;;;1.95;;
30185;SDS011;31152;49.190;8.122;2023-12-28T12:30:56;5.40;;;1.90;;
30185;SDS011;31152;49.190;8.122;2023-12-28T12:33:23;2.88;;;1.35;;
30185;SDS011;31152;49.190;8.122;2023-12-28T12:35:55;2.33;;;1.52;;
30185;SDS011;31152;49.190;8.122;2023-12-28T12:38:24;4.60;;;1.60;;
30185;SDS011;31152;49.190;8.122;2023-12-28T12:40:53;2.03;;;1.30;;
30185;SDS011;31152;49.190;8.122;2023-12-28T12:43:22;2.45;;;1.67;;
30185;SDS011;31152;49.190;8.122;2023-12-28T12:45:49;2.08;;;1.45;;
30185;SDS011;31152;49.190;8.122;2023-12-28T12:48:19;3.03;;;1.33;;
30185;SDS011;31152;49.190;8.122;2023-12-28T12:50:46;2.83;;;1.15;;
30185;SDS011;31152;49.190;8.122;2023-12-28T12:53:13;3.45;;;1.20;;
30185;SDS011;31152;49.190;8.122;2023-12-28T12:55:42;4.30;;;1.35;;
30185;SDS011;31152;49.190;8.122;2023-12-28T12:58:11;2.55;;;1.17;;
30185;SDS011;31152;49.190;8.122;2023-12-28T13:00:39;1.73;;;1.40;;
30185;SDS011;31152;49.190;8.122;2023-12-28T13:03:09;2.03;;;1.20;;
30185;SDS011;31152;49.190;8.122;2023-12-28T13:05:38;3.05;;;1.50;;
30185;SDS011;31152;49.190;8.122;2023-12-28T13:08:10;7.45;;;1.65;;
30185;SDS011;31152;49.190;8.122;2023-12-28T13:10:40;3.38;;;1.50;;
30185;SDS011;31152;49.190;8.122;2023-12-28T13:13:06;3.75;;;1.60;;
30185;SDS011;31152;49.190;8.122;2023-12-28T13:15:36;6.35;;;1.80;;
30185;SDS011;31152;49.190;8.122;2023-12-28T13:18:03;2.53;;;1.67;;
30185;SDS011;31152;49.190;8.122;2023-12-28T13:20:32;3.03;;;1.50;;
30185;SDS011;31152;49.190;8.122;2023-12-28T13:22:59;5.53;;;1.60;;
30185;SDS011;31152;49.190;8.122;2023-12-28T13:25:28;3.40;;;1.60;;
30185;SDS011;31152;49.190;8.122;2023-12-28T13:27:55;4.03;;;1.75;;
30185;SDS011;31152;49.190;8.122;2023-12-28T13:30:25;4.97;;;1.77;;
30185;SDS011;31152;49.190;8.122;2023-12-28T13:32:55;2.17;;;1.58;;
30185;SDS011;31152;49.190;8.122;2023-12-28T13:35:25;6.25;;;2.50;;
30185;SDS011;31152;49.190;8.122;2023-12-28T13:37:52;3.90;;;1.70;;
30185;SDS011;31152;49.190;8.122;2023-12-28T13:40:19;2.70;;;1.60;;
30185;SDS011;31152;49.190;8.122;2023-12-28T13:42:46;2.90;;;1.80;;
30185;SDS011;31152;49.190;8.122;2023-12-28T13:45:13;8.30;;;1.80;;
30185;SDS011;31152;49.190;8.122;2023-12-28T13:47:40;5.32;;;1.92;;
30185;SDS011;31152;49.190;8.122;2023-12-28T13:50:07;2.92;;;1.73;;
30185;SDS011;31152;49.190;8.122;2023-12-28T13:52:36;4.93;;;2.15;;
30185;SDS011;31152;49.190;8.122;2023-12-28T13:55:08;8.48;;;2.70;;
30185;SDS011;31152;49.190;8.122;2023-12-28T13:57:35;3.63;;;1.75;;
30185;SDS011;31152;49.190;8.122;2023-12-28T14:00:04;4.95;;;1.98;;
30185;SDS011;31152;49.190;8.122;2023-12-28T14:02:32;5.50;;;1.95;;
30185;SDS011;31152;49.190;8.122;2023-12-28T14:05:01;3.65;;;1.75;;
30185;SDS011;31152;49.190;8.122;2023-12-28T14:07:28;6.00;;;1.60;;
30185;SDS011;31152;49.190;8.122;2023-12-28T14:09:55;5.40;;;1.80;;
30185;SDS011;31152;49.190;8.122;2023-12-28T14:12:22;2.97;;;1.90;;
30185;SDS011;31152;49.190;8.122;2023-12-28T14:14:48;4.32;;;2.10;;
30185;SDS011;31152;49.190;8.122;2023-12-28T14:17:15;3.90;;;1.83;;
30185;SDS011;31152;49.190;8.122;2023-12-28T14:19:48;6.57;;;1.92;;
30185;SDS011;31152;49.190;8.122;2023-12-28T14:22:17;7.25;;;1.88;;
30185;SDS011;31152;49.190;8.122;2023-12-28T14:24:44;12.82;;;2.83;;
30185;SDS011;31152;49.190;8.122;2023-12-28T14:27:11;7.13;;;1.90;;
30185;SDS011;31152;49.190;8.122;2023-12-28T14:29:38;5.43;;;2.00;;
30185;SDS011;31152;49.190;8.122;2023-12-28T14:32:07;6.50;;;1.90;;
30185;SDS011;31152;49.190;8.122;2023-12-28T14:34:37;5.97;;;2.03;;
30185;SDS011;31152;49.190;8.122;2023-12-28T14:37:09;4.93;;;1.90;;
30185;SDS011;31152;49.190;8.122;2023-12-28T14:39:36;4.32;;;1.85;;
30185;SDS011;31152;49.190;8.122;2023-12-28T14:42:05;3.78;;;2.10;;
30185;SDS011;31152;49.190;8.122;2023-12-28T14:44:32;3.75;;;1.73;;
30185;SDS011;31152;49.190;8.122;2023-12-28T14:47:01;4.97;;;2.10;;
30185;SDS011;31152;49.190;8.122;2023-12-28T14:49:28;4.10;;;2.05;;
30185;SDS011;31152;49.190;8.122;2023-12-28T14:51:55;5.95;;;2.28;;
30185;SDS011;31152;49.190;8.122;2023-12-28T14:54:24;2.83;;;1.60;;
30185;SDS011;31152;49.190;8.122;2023-12-28T14:56:51;6.65;;;1.60;;
30185;SDS011;31152;49.190;8.122;2023-12-28T14:59:21;3.03;;;1.80;;